Time;durP1;ratioP1;P1;durP2;ratioP2;P2;SDS_P1;SDS_P2;PMS_P1;PMS_P2;Temp;Humidity;BMP_temperature;BMP_pressure;BME280_temperature;BME280_humidity;BME280_pressure;Samples;Min_cycle;Max_cycle;Signal;HPM_P1;HPM_P2
2021/11/15 00:03:34;;;;;;;118.05;45.80;;;;;;;5.41;100.00;99352.41;10336039;28;20037;-76
2021/11/15 00:08:37;;;;;;;105.18;39.90;;;;;;;5.42;100.00;99346.09;10362524;28;20041;-76
2021/11/15 00:13:41;;;;;;;103.28;40.40;;;;;;;5.43;100.00;99347.81;10354977;28;20050;-76
2021/11/15 00:18:44;;;;;;;84.60;33.90;;;;;;;5.42;100.00;99340.75;10357298;28;20049;-76
2021/11/15 00:23:47;;;;;;;81.88;34.45;;;;;;;5.39;100.00;99340.97;10355609;28;20486;-77
2021/11/15 00:28:51;;;;;;;83.13;33.55;;;;;;;5.36;100.00;99346.50;10338760;28;20065;-76
2021/11/15 00:33:57;;;;;;;82.50;33.88;;;;;;;5.33;100.00;99346.75;10302385;28;20499;-76
2021/11/15 00:39:00;;;;;;;84.20;34.72;;;;;;;5.32;100.00;99335.19;10305342;28;20134;-76
2021/11/15 00:44:05;;;;;;;75.97;32.65;;;;;;;5.31;100.00;99345.97;10349401;28;20100;-76
2021/11/15 00:49:08;;;;;;;65.75;30.50;;;;;;;5.25;100.00;99344.59;10361166;28;20065;-75
2021/11/15 00:54:11;;;;;;;77.05;32.03;;;;;;;5.21;100.00;99335.94;10317289;28;20114;-75
2021/11/15 00:59:15;;;;;;;74.53;31.17;;;;;;;5.22;100.00;99340.31;10324388;28;20122;-76
2021/11/15 01:04:18;;;;;;;73.45;31.42;;;;;;;5.20;100.00;99342.22;10333171;28;20448;-75
2021/11/15 01:09:22;;;;;;;77.10;32.50;;;;;;;5.16;100.00;99340.72;10308227;28;20124;-76
2021/11/15 01:14:27;;;;;;;74.45;32.10;;;;;;;5.15;100.00;99341.66;10335545;28;20049;-76
2021/11/15 01:19:30;;;;;;;77.65;31.85;;;;;;;5.12;100.00;99336.53;10328010;28;20066;-76
2021/11/15 01:24:33;;;;;;;77.72;32.67;;;;;;;5.09;100.00;99344.78;10324383;28;20074;-76
2021/11/15 01:29:37;;;;;;;82.13;33.35;;;;;;;5.06;100.00;99340.47;10335211;28;20054;-76
2021/11/15 01:34:40;;;;;;;95.30;36.47;;;;;;;5.04;100.00;99339.75;10348057;28;20061;-73
2021/11/15 01:39:43;;;;;;;90.57;36.25;;;;;;;5.00;100.00;99337.38;10347462;28;20042;-73
2021/11/15 01:44:49;;;;;;;106.03;38.80;;;;;;;4.96;100.00;99333.19;10357631;28;20041;-74
2021/11/15 01:49:52;;;;;;;99.00;36.10;;;;;;;4.92;100.00;99328.06;10359042;28;20168;-74
2021/11/15 01:54:55;;;;;;;95.50;36.45;;;;;;;4.89;100.00;99325.59;10342916;28;20046;-73
2021/11/15 01:59:59;;;;;;;83.80;33.90;;;;;;;4.85;100.00;99329.44;10374196;28;20077;-74
2021/11/15 02:05:02;;;;;;;92.03;36.45;;;;;;;4.83;100.00;99322.47;10367632;28;20052;-74
2021/11/15 02:10:07;;;;;;;102.60;36.15;;;;;;;4.76;100.00;99314.88;10350202;28;20046;-73
2021/11/15 02:15:14;;;;;;;98.10;35.88;;;;;;;4.76;100.00;99314.88;10357895;28;20056;-74
2021/11/15 02:20:19;;;;;;;106.38;37.05;;;;;;;4.75;100.00;99315.84;10358563;28;20556;-72
2021/11/15 02:25:25;;;;;;;109.85;38.45;;;;;;;4.77;100.00;99313.06;10345981;28;20056;-72
2021/11/15 02:30:29;;;;;;;111.85;38.67;;;;;;;4.72;100.00;99316.03;10351519;28;20129;-72
2021/11/15 02:35:33;;;;;;;115.13;40.20;;;;;;;4.72;100.00;99318.69;10363416;28;20046;-72
2021/11/15 02:40:37;;;;;;;112.45;38.85;;;;;;;4.68;100.00;99316.34;10360714;28;20047;-72
2021/11/15 02:45:40;;;;;;;115.10;39.90;;;;;;;4.68;100.00;99306.53;10355672;28;20046;-74
2021/11/15 02:50:45;;;;;;;123.63;40.22;;;;;;;4.68;100.00;99311.00;10361414;28;20057;-75
2021/11/15 02:55:48;;;;;;;116.45;39.20;;;;;;;4.67;100.00;99314.63;10351178;28;20526;-73
2021/11/15 03:00:53;;;;;;;127.50;40.97;;;;;;;4.66;100.00;99320.91;10342897;28;20521;-76
2021/11/15 03:05:58;;;;;;;130.07;41.47;;;;;;;4.66;100.00;99310.25;10356016;28;20510;-75
2021/11/15 03:11:05;;;;;;;143.00;43.75;;;;;;;4.65;100.00;99303.19;10339359;28;20046;-77
2021/11/15 03:16:08;;;;;;;150.40;44.33;;;;;;;4.66;100.00;99305.78;10364986;28;20513;-75
2021/11/15 03:21:17;;;;;;;158.18;45.35;;;;;;;4.64;100.00;99313.03;10350639;28;20630;-79
2021/11/15 03:26:21;;;;;;;158.30;45.90;;;;;;;4.62;100.00;99306.94;10348685;28;20050;-75
2021/11/15 03:31:27;;;;;;;156.82;45.83;;;;;;;4.61;100.00;99322.09;10384917;28;20125;-74
2021/11/15 03:36:32;;;;;;;172.48;49.28;;;;;;;4.61;100.00;99308.75;10372545;28;20451;-75
2021/11/15 03:41:37;;;;;;;182.23;49.15;;;;;;;4.61;100.00;99313.22;10396129;28;20136;-75
2021/11/15 03:46:42;;;;;;;214.00;52.85;;;;;;;4.55;100.00;99319.81;10372302;28;20057;-75
2021/11/15 03:51:47;;;;;;;202.15;51.90;;;;;;;4.55;100.00;99317.16;10379047;28;20048;-76
2021/11/15 03:56:49;;;;;;;210.80;53.67;;;;;;;4.52;100.00;99312.03;10380622;28;20073;-75
2021/11/15 04:01:53;;;;;;;242.13;55.63;;;;;;;4.50;100.00;99321.94;10355051;28;20050;-78
2021/11/15 04:06:58;;;;;;;280.85;60.60;;;;;;;4.48;100.00;99313.19;10378492;28;20067;-76
2021/11/15 04:12:02;;;;;;;280.52;62.30;;;;;;;4.45;100.00;99308.03;10383701;28;20054;-75
2021/11/15 04:17:05;;;;;;;271.88;60.08;;;;;;;4.45;100.00;99305.38;10383553;28;20052;-75
2021/11/15 04:22:09;;;;;;;263.38;59.95;;;;;;;4.43;100.00;99294.81;10382439;28;20120;-74
2021/11/15 04:27:12;;;;;;;267.48;62.63;;;;;;;4.40;100.00;99289.66;10354471;28;20056;-75
2021/11/15 04:32:15;;;;;;;292.38;63.20;;;;;;;4.39;100.00;99276.44;10356425;28;20687;-75
2021/11/15 04:37:20;;;;;;;271.63;65.15;;;;;;;4.39;100.00;99273.78;10343694;28;20798;-76
2021/11/15 04:42:23;;;;;;;300.63;66.30;;;;;;;4.37;100.00;99270.34;10353494;28;20057;-75
2021/11/15 04:47:26;;;;;;;288.20;68.50;;;;;;;4.36;100.00;99271.28;10356261;28;20049;-75
2021/11/15 04:52:31;;;;;;;285.35;70.15;;;;;;;4.39;100.00;99257.75;10339899;28;20741;-76
2021/11/15 04:57:35;;;;;;;291.92;70.45;;;;;;;4.35;100.00;99249.06;10337943;28;20057;-77
2021/11/15 05:02:39;;;;;;;307.10;74.25;;;;;;;4.35;100.00;99250.91;10342009;28;20069;-75
2021/11/15 05:07:44;;;;;;;292.80;72.45;;;;;;;4.35;100.00;99257.06;10330869;28;20513;-75
2021/11/15 05:12:47;;;;;;;290.67;73.50;;;;;;;4.33;100.00;99253.69;10350338;28;20044;-75
2021/11/15 05:17:52;;;;;;;310.15;79.93;;;;;;;4.34;100.00;99252.72;10359051;28;20062;-75
2021/11/15 05:22:56;;;;;;;311.20;80.05;;;;;;;4.32;100.00;99250.16;10347590;28;20125;-75
2021/11/15 05:27:59;;;;;;;328.48;79.80;;;;;;;4.31;100.00;99250.25;10343909;28;20057;-73
2021/11/15 05:33:02;;;;;;;387.95;80.82;;;;;;;4.31;100.00;99251.09;10371662;28;20036;-74
2021/11/15 05:38:11;;;;;;;405.90;85.00;;;;;;;4.26;100.00;99241.69;10376894;28;20045;-74
2021/11/15 05:43:14;;;;;;;327.02;73.75;;;;;;;4.24;100.00;99244.47;10372979;28;20092;-74
2021/11/15 05:48:17;;;;;;;325.25;76.95;;;;;;;4.25;100.00;99253.31;10363619;28;20088;-74
2021/11/15 05:53:21;;;;;;;302.88;75.78;;;;;;;4.24;100.00;99251.59;10364194;28;20049;-74
2021/11/15 05:58:24;;;;;;;308.70;76.15;;;;;;;4.24;100.00;99263.13;10380472;28;20053;-74
2021/11/15 06:03:28;;;;;;;357.58;76.78;;;;;;;4.21;100.00;99274.00;10378284;28;20045;-74
2021/11/15 06:08:32;;;;;;;350.48;78.72;;;;;;;4.22;100.00;99264.19;10384728;28;20049;-73
2021/11/15 06:13:35;;;;;;;347.13;78.18;;;;;;;4.18;100.00;99274.19;10368992;28;20049;-74
2021/11/15 06:18:40;;;;;;;341.48;77.80;;;;;;;4.20;100.00;99284.78;10387033;28;20048;-73
2021/11/15 06:23:45;;;;;;;316.67;77.05;;;;;;;4.16;100.00;99281.47;10379166;28;20046;-73
2021/11/15 06:28:54;;;;;;;319.27;78.75;;;;;;;4.15;100.00;99285.91;10375043;28;20498;-74
2021/11/15 06:33:56;;;;;;;317.02;77.43;;;;;;;4.14;100.00;99294.03;10391345;28;20042;-74
2021/11/15 06:39:01;;;;;;;300.88;74.72;;;;;;;4.11;100.00;99294.22;10384976;28;20720;-73
2021/11/15 06:44:07;;;;;;;316.02;78.55;;;;;;;4.10;100.00;99303.19;10377259;28;20065;-73
2021/11/15 06:49:10;;;;;;;287.65;73.80;;;;;;;4.09;100.00;99296.13;10386997;28;20034;-74
2021/11/15 06:54:15;;;;;;;299.05;77.43;;;;;;;4.08;100.00;99305.94;10384894;28;20122;-74
2021/11/15 06:59:18;;;;;;;285.55;75.03;;;;;;;4.09;100.00;99306.78;10351859;28;20056;-74
2021/11/15 07:04:21;;;;;;;266.80;72.43;;;;;;;4.05;100.00;99306.13;10357922;28;20510;-75
2021/11/15 07:09:25;;;;;;;258.67;70.22;;;;;;;4.00;100.00;99292.22;10377290;28;20050;-74
2021/11/15 07:14:28;;;;;;;237.10;66.35;;;;;;;3.97;100.00;99290.63;10353999;28;20056;-74
2021/11/15 07:19:31;;;;;;;231.57;66.05;;;;;;;3.97;100.00;99300.44;10407869;28;20081;-75
2021/11/15 07:24:36;;;;;;;259.95;70.10;;;;;;;3.97;100.00;99303.97;10376207;28;20057;-75
2021/11/15 07:29:39;;;;;;;238.07;66.32;;;;;;;3.98;100.00;99299.50;10351812;28;20413;-75
2021/11/15 07:34:42;;;;;;;258.75;71.43;;;;;;;3.97;100.00;99308.44;10362605;28;20072;-74
2021/11/15 07:39:47;;;;;;;262.55;70.93;;;;;;;4.01;100.00;99304.59;10366342;28;20052;-74
2021/11/15 07:44:50;;;;;;;260.23;69.10;;;;;;;4.00;100.00;99309.09;10364473;28;20054;-75
2021/11/15 07:49:53;;;;;;;258.85;69.07;;;;;;;4.03;100.00;99308.03;10363238;28;20042;-75
2021/11/15 07:55:01;;;;;;;256.63;72.18;;;;;;;4.01;100.00;99318.81;10346882;28;20059;-75
2021/11/15 08:00:06;;;;;;;274.38;73.55;;;;;;;4.01;100.00;99313.47;10361252;28;20048;-74
2021/11/15 08:05:16;;;;;;;280.80;72.07;;;;;;;4.01;100.00;99308.16;10363410;28;20102;-74
2021/11/15 08:10:21;;;;;;;276.27;73.90;;;;;;;4.00;100.00;99311.78;10370711;28;20507;-75
2021/11/15 08:15:25;;;;;;;290.05;75.78;;;;;;;3.99;100.00;99310.06;10362416;28;20053;-75
2021/11/15 08:20:31;;;;;;;299.67;79.00;;;;;;;3.99;100.00;99315.38;10384685;23;20386;-83
2021/11/15 08:26:08;;;;;;;302.88;79.40;;;;;;;4.01;100.00;99323.28;10334562;28;20624;-84
2021/11/15 08:31:13;;;;;;;300.42;79.18;;;;;;;4.05;100.00;99327.47;10299051;28;20062;-80
2021/11/15 08:36:16;;;;;;;301.23;80.07;;;;;;;4.07;100.00;99324.69;10299064;28;20438;-83
2021/11/15 08:41:24;;;;;;;293.00;78.78;;;;;;;4.08;100.00;99321.94;10317956;28;20054;-83
2021/11/15 08:46:29;;;;;;;301.00;80.47;;;;;;;4.07;100.00;99316.69;10299896;28;20414;-81
2021/11/15 08:51:37;;;;;;;307.90;83.32;;;;;;;4.07;100.00;99312.25;10319413;28;20414;-80
2021/11/15 08:56:41;;;;;;;297.23;82.55;;;;;;;4.09;100.00;99313.00;10322386;28;20140;-81
2021/11/15 09:02:05;;;;;;;318.10;84.20;;;;;;;4.10;100.00;99305.84;10311855;28;20042;-80
2021/11/15 09:07:09;;;;;;;310.25;85.55;;;;;;;4.13;100.00;99316.31;10333272;28;20050;-80
2021/11/15 09:12:15;;;;;;;297.75;81.57;;;;;;;4.13;100.00;99311.00;10314797;28;20295;-83
2021/11/15 09:17:18;;;;;;;276.98;78.53;;;;;;;4.14;100.00;99323.38;10315568;28;20064;-82
2021/11/15 09:22:21;;;;;;;275.58;78.70;;;;;;;4.15;100.00;99323.25;10326324;28;20502;-86
2021/11/15 09:27:26;;;;;;;270.70;77.72;;;;;;;4.18;100.00;99322.19;10318310;28;20065;-84
2021/11/15 09:32:29;;;;;;;265.23;75.32;;;;;;;4.21;100.00;99313.16;10313128;28;20066;-84
2021/11/15 09:37:33;;;;;;;252.55;73.70;;;;;;;4.27;100.00;99315.41;10326261;28;20104;-85
2021/11/15 09:42:39;;;;;;;231.73;69.88;;;;;;;4.28;100.00;99307.34;10307402;28;20154;-86
2021/11/15 09:47:42;;;;;;;235.70;70.38;;;;;;;4.31;100.00;99315.13;10336997;28;20421;-83
2021/11/15 09:52:45;;;;;;;230.77;69.35;;;;;;;4.37;100.00;99321.88;10322446;28;20050;-84
2021/11/15 09:57:50;;;;;;;218.68;71.22;;;;;;;4.43;100.00;99315.28;10312912;28;20126;-83
2021/11/15 10:02:53;;;;;;;228.32;72.05;;;;;;;4.45;100.00;99319.59;10338771;28;20148;-84
2021/11/15 10:08:09;;;;;;;240.13;74.38;;;;;;;4.54;100.00;99311.91;10311966;28;20097;-82
2021/11/15 10:13:20;;;;;;;218.70;71.47;;;;;;;4.58;100.00;99311.63;10306177;28;20046;-84
2021/11/15 10:18:32;;;;;;;232.50;74.73;;;;;;;4.62;100.00;99304.25;10306936;28;20433;-83
2021/11/15 10:23:39;;;;;;;230.63;73.35;;;;;;;4.65;100.00;99296.06;10351764;28;20050;-82
2021/11/15 10:28:45;;;;;;;226.82;73.40;;;;;;;4.69;100.00;99288.69;10340179;28;20517;-84
2021/11/15 10:33:48;;;;;;;212.57;71.82;;;;;;;4.72;100.00;99289.34;10329893;28;20069;-84
2021/11/15 10:38:53;;;;;;;208.05;72.47;;;;;;;4.77;100.00;99294.38;10341682;28;20057;-86
2021/11/15 10:43:59;;;;;;;208.50;68.95;;;;;;;4.82;100.00;99302.94;10358690;28;20042;-84
2021/11/15 10:49:04;;;;;;;192.85;67.30;;;;;;;4.85;100.00;99293.84;10359014;28;20140;-83
2021/11/15 10:54:53;;;;;;;187.27;67.00;;;;;;;4.90;100.00;99297.09;10364251;28;20042;-83
2021/11/15 11:00:36;;;;;;;164.95;62.38;;;;;;;4.93;100.00;99287.03;10365100;28;20111;-83
2021/11/15 11:05:41;;;;;;;162.88;59.67;;;;;;;4.99;100.00;99283.09;10358683;28;20068;-83
2021/11/15 11:11:09;;;;;;;171.00;63.28;;;;;;;5.05;100.00;99281.81;10355742;28;20391;-84
2021/11/15 11:16:14;;;;;;;173.15;63.17;;;;;;;5.08;100.00;99285.13;10359415;28;20072;-84
2021/11/15 11:21:41;;;;;;;170.35;64.82;;;;;;;5.10;100.00;99282.38;10359866;28;20054;-83
2021/11/15 11:26:50;;;;;;;175.88;66.28;;;;;;;5.13;100.00;99273.28;10347980;28;20053;-85
2021/11/15 11:31:57;;;;;;;158.10;60.75;;;;;;;5.12;100.00;99283.09;10360417;28;20352;-84
2021/11/15 11:37:02;;;;;;;200.88;73.25;;;;;;;5.06;100.00;99276.38;10368743;28;20049;-83
2021/11/15 11:42:07;;;;;;;186.52;72.70;;;;;;;5.04;100.00;99272.09;10381672;28;20510;-83
2021/11/15 11:47:14;;;;;;;181.05;68.35;;;;;;;5.03;100.00;99267.72;10367474;28;20046;-84
2021/11/15 11:52:24;;;;;;;163.25;64.38;;;;;;;5.02;100.00;99258.00;10338446;28;20104;-86
2021/11/15 11:57:31;;;;;;;174.40;66.80;;;;;;;5.04;100.00;99267.63;10361470;28;20041;-84
2021/11/15 12:02:36;;;;;;;163.15;62.30;;;;;;;5.06;100.00;99272.84;10358051;28;20042;-81
2021/11/15 12:07:41;;;;;;;163.00;62.95;;;;;;;5.05;100.00;99264.00;10353494;28;20441;-84
2021/11/15 12:13:04;;;;;;;153.60;59.05;;;;;;;5.06;100.00;99263.00;10360872;28;20045;-86
2021/11/15 12:18:18;;;;;;;164.73;61.60;;;;;;;5.10;100.00;99258.34;10347790;28;20058;-88
2021/11/15 12:23:21;;;;;;;160.50;62.20;;;;;;;5.13;100.00;99246.59;10353359;28;20061;-86
2021/11/15 12:28:29;;;;;;;137.50;54.92;;;;;;;5.12;100.00;99247.53;10355755;28;20050;-87
2021/11/15 12:33:35;;;;;;;137.85;55.50;;;;;;;5.11;100.00;99245.81;10366395;28;20060;-86
2021/11/15 12:38:49;;;;;;;131.20;53.80;;;;;;;5.13;100.00;99247.41;10368619;28;20516;-86
2021/11/15 12:44:16;;;;;;;122.13;52.47;;;;;;;5.15;100.00;99236.66;10377144;28;20409;-88
2021/11/15 12:49:23;;;;;;;120.43;51.22;;;;;;;5.17;100.00;99243.59;10363990;28;20054;-83
2021/11/15 12:54:26;;;;;;;128.27;53.78;;;;;;;5.19;100.00;99236.31;10359532;28;20053;-86
2021/11/15 12:59:29;;;;;;;117.00;51.58;;;;;;;5.21;100.00;99236.22;10358071;28;20046;-88
2021/11/15 13:04:34;;;;;;;117.80;52.20;;;;;;;5.18;100.00;99226.59;10365573;28;20052;-84
2021/11/15 13:09:37;;;;;;;122.18;51.92;;;;;;;5.14;100.00;99230.44;10360262;28;20060;-84
2021/11/15 13:14:40;;;;;;;122.47;52.75;;;;;;;5.16;100.00;99233.88;10365369;28;20045;-85
2021/11/15 13:19:46;;;;;;;117.68;52.05;;;;;;;5.13;100.00;99220.72;10361068;28;20056;-84
2021/11/15 13:24:52;;;;;;;123.32;52.88;;;;;;;5.14;100.00;99224.25;10352554;28;20073;-85
2021/11/15 13:29:59;;;;;;;129.02;53.50;;;;;;;5.16;100.00;99225.84;10363742;28;20041;-85
2021/11/15 13:35:04;;;;;;;115.10;50.45;;;;;;;5.13;100.00;99218.03;10364306;28;20068;-85
2021/11/15 13:40:08;;;;;;;132.18;53.63;;;;;;;5.15;100.00;99221.47;10365997;28;20034;-84
2021/11/15 13:45:11;;;;;;;125.07;54.28;;;;;;;5.12;100.00;99216.31;10384200;28;20065;-87
2021/11/15 13:50:16;;;;;;;121.10;53.25;;;;;;;5.14;100.00;99226.91;10358639;28;20060;-86
2021/11/15 14:02:19;;;;;;;118.68;51.15;;;;;;;5.06;100.00;99203.41;10427507;28;20054;-89
2021/11/15 14:07:48;;;;;;;114.93;51.40;;;;;;;5.03;100.00;99211.63;10404692;28;20054;-89
2021/11/15 14:12:57;;;;;;;129.32;54.63;;;;;;;5.06;100.00;99211.44;10391029;28;20446;-86
2021/11/15 14:18:30;;;;;;;117.65;50.63;;;;;;;5.01;100.00;99205.53;10351085;28;20077;-86
2021/11/15 14:24:33;;;;;;;118.88;51.35;;;;;;;4.99;100.00;99205.66;10353071;28;20054;-89
2021/11/15 14:30:31;;;;;;;126.20;54.10;;;;;;;5.00;100.00;99207.38;10357308;28;20518;-87
2021/11/15 14:36:29;;;;;;;113.20;49.70;;;;;;;4.97;100.00;99206.72;10358919;28;20062;-89
2021/11/15 14:41:38;;;;;;;119.38;50.25;;;;;;;4.95;100.00;99220.16;10360966;28;20068;-87
2021/11/15 14:46:56;;;;;;;117.65;51.55;;;;;;;4.96;100.00;99221.88;10360576;28;20093;-86
2021/11/15 14:52:06;;;;;;;124.15;51.80;;;;;;;4.91;100.00;99214.19;10360754;28;20049;-86
2021/11/15 14:57:12;;;;;;;122.47;51.53;;;;;;;4.89;100.00;99213.44;10367749;28;20050;-86
2021/11/15 15:02:15;;;;;;;113.55;49.70;;;;;;;4.89;100.00;99215.25;10372236;28;20056;-85
2021/11/15 15:07:20;;;;;;;117.85;50.38;;;;;;;4.87;100.00;99212.72;10357066;28;20142;-85
2021/11/15 15:12:27;;;;;;;122.47;51.40;;;;;;;4.85;100.00;99208.41;10366947;28;20046;-83
2021/11/15 15:17:35;;;;;;;121.68;51.85;;;;;;;4.83;100.00;99213.00;10355696;28;20433;-86
2021/11/15 15:22:39;;;;;;;126.10;54.75;;;;;;;4.84;100.00;99204.03;10356460;28;20539;-85
2021/11/15 15:27:46;;;;;;;119.60;50.92;;;;;;;4.79;100.00;99212.38;10319980;28;20060;-86
2021/11/15 15:32:52;;;;;;;114.97;51.63;;;;;;;4.79;100.00;99209.69;10327045;28;20395;-86
2021/11/15 15:37:57;;;;;;;123.45;52.25;;;;;;;4.77;100.00;99206.25;10322388;28;20484;-87
2021/11/15 15:43:03;;;;;;;120.03;52.40;;;;;;;4.74;100.00;99201.16;10328045;28;20403;-87
2021/11/15 15:48:09;;;;;;;126.30;52.83;;;;;;;4.73;100.00;99210.13;10317021;28;20046;-87
2021/11/15 15:53:12;;;;;;;123.63;52.55;;;;;;;4.69;100.00;99204.16;10318144;28;20482;-85
2021/11/15 15:58:30;;;;;;;117.30;51.03;;;;;;;4.67;100.00;99202.50;10310773;28;20148;-86
2021/11/15 16:04:17;;;;;;;129.27;55.10;;;;;;;4.67;100.00;99202.50;10307172;28;20494;-85
2021/11/15 16:09:49;;;;;;;126.63;55.83;;;;;;;4.64;100.00;99195.59;10325128;28;20044;-89
2021/11/15 16:20:19;;;;;;;;;;;;;;;4.59;100.00;99190.56;10319061;28;20574;-87
2021/11/15 16:25:22;;;;;;;124.05;53.15;;;;;;;4.59;100.00;99193.22;10382678;28;20036;-84
2021/11/15 16:31:37;;;;;;;128.13;53.88;;;;;;;4.60;100.00;99205.63;10359796;28;20459;-87
2021/11/15 16:37:07;;;;;;;135.50;55.78;;;;;;;4.58;100.00;99206.69;10358615;28;20109;-85
2021/11/15 16:42:14;;;;;;;128.38;55.17;;;;;;;4.59;100.00;99205.69;10362728;28;20143;-87
2021/11/15 16:47:20;;;;;;;132.32;55.85;;;;;;;4.59;100.00;99208.38;10364345;28;20088;-88
2021/11/15 16:52:50;;;;;;;136.68;57.33;;;;;;;4.59;100.00;99208.38;10356529;28;20133;-84
2021/11/15 16:57:58;;;;;;;131.68;55.35;;;;;;;4.57;100.00;99200.47;10359145;28;20053;-84
2021/11/15 17:03:04;;;;;;;144.32;57.13;;;;;;;4.57;100.00;99208.50;10357455;28;20049;-83
2021/11/15 17:08:10;;;;;;;131.30;56.25;;;;;;;4.55;100.00;99205.06;10371919;28;20123;-84
2021/11/15 17:13:20;;;;;;;129.45;55.50;;;;;;;4.55;100.00;99207.72;10372161;28;20077;-83
2021/11/15 17:18:33;;;;;;;137.20;56.20;;;;;;;4.54;100.00;99205.19;10361512;28;20054;-85
2021/11/15 17:23:39;;;;;;;135.90;58.33;;;;;;;4.50;100.00;99209.88;10370624;28;20058;-85
2021/11/15 17:28:44;;;;;;;134.57;57.40;;;;;;;4.51;100.00;99202.72;10348782;28;20113;-85
2021/11/15 17:33:49;;;;;;;146.45;60.00;;;;;;;4.50;100.00;99193.84;10355926;28;20069;-83
2021/11/15 17:38:57;;;;;;;141.27;60.05;;;;;;;4.47;100.00;99208.25;10369845;28;20506;-83
2021/11/15 17:44:00;;;;;;;136.00;58.38;;;;;;;4.46;100.00;99211.03;10345415;28;20588;-86
2021/11/15 17:49:07;;;;;;;143.15;59.03;;;;;;;4.45;100.00;99211.97;10353379;28;20460;-84
2021/11/15 18:00:37;;;;;;;145.27;60.38;;;;;;;4.43;100.00;99197.88;10356357;28;20108;-84
2021/11/15 18:05:41;;;;;;;146.48;59.30;;;;;;;4.42;100.00;99199.72;10364387;28;20046;-86
2021/11/15 18:10:46;;;;;;;150.45;61.42;;;;;;;4.42;100.00;99205.03;10365379;28;20129;-84
2021/11/15 18:15:52;;;;;;;147.00;61.85;;;;;;;4.43;100.00;99208.56;10358143;28;20120;-83
2021/11/15 18:20:59;;;;;;;138.05;61.67;;;;;;;4.44;100.00;99204.94;10388357;28;20077;-83
2021/11/15 18:26:06;;;;;;;145.02;60.67;;;;;;;4.41;100.00;99206.00;10393075;28;20129;-85
2021/11/15 18:31:12;;;;;;;143.43;59.60;;;;;;;4.41;100.00;99202.50;10370061;28;20100;-85
2021/11/15 18:36:42;;;;;;;139.43;58.88;;;;;;;4.41;100.00;99200.66;10377527;28;20132;-90
2021/11/15 18:41:49;;;;;;;142.88;58.30;;;;;;;4.41;100.00;99195.31;10396611;28;20038;-87
2021/11/15 18:46:56;;;;;;;143.43;59.45;;;;;;;4.40;100.00;99185.59;10359442;28;20054;-87
2021/11/15 18:52:00;;;;;;;148.23;59.63;;;;;;;4.41;100.00;99181.97;10384299;28;20128;-85
2021/11/15 18:57:06;;;;;;;150.75;61.35;;;;;;;4.41;100.00;99194.47;10368271;28;20042;-83
2021/11/15 19:02:11;;;;;;;146.88;60.17;;;;;;;4.41;100.00;99199.81;10376727;28;20061;-86
2021/11/15 19:07:20;;;;;;;149.32;59.72;;;;;;;4.39;100.00;99196.41;10383540;28;20040;-89
2021/11/15 19:12:54;;;;;;;140.95;56.53;;;;;;;4.39;100.00;99193.72;10371274;28;20061;-86
2021/11/15 19:17:58;;;;;;;138.73;58.80;;;;;;;4.40;100.00;99188.28;10370457;28;20045;-87
2021/11/15 19:23:20;;;;;;;138.43;58.58;;;;;;;4.40;100.00;99190.09;10365249;28;20051;-85
2021/11/15 19:28:26;;;;;;;146.48;59.63;;;;;;;4.39;100.00;99193.72;10357146;28;20066;-85
2021/11/15 19:33:30;;;;;;;135.88;57.33;;;;;;;4.40;100.00;99192.78;10327991;28;20435;-86
2021/11/15 19:38:36;;;;;;;139.77;57.40;;;;;;;4.39;100.00;99189.22;10323927;28;20065;-87
2021/11/15 19:43:39;;;;;;;147.40;59.80;;;;;;;4.40;100.00;99182.09;10337992;28;20080;-86
2021/11/15 19:48:45;;;;;;;145.40;58.97;;;;;;;4.42;100.00;99185.50;10339962;28;20132;-86
2021/11/15 19:53:50;;;;;;;144.27;60.30;;;;;;;4.41;100.00;99190.00;10312203;28;20046;-86
2021/11/15 19:58:55;;;;;;;144.85;59.47;;;;;;;4.44;100.00;99188.91;10339153;28;20057;-87
2021/11/15 20:04:00;;;;;;;146.23;60.42;;;;;;;4.45;100.00;99191.50;10373190;23;20088;-64
2021/11/15 20:09:04;;;;;;;140.05;59.22;;;;;;;4.45;100.00;99186.16;10385258;28;20348;-62
2021/11/15 20:14:07;;;;;;;144.35;59.60;;;;;;;4.48;100.00;99190.44;10345246;28;20046;-59
2021/11/15 20:19:12;;;;;;;142.20;60.42;;;;;;;4.50;100.00;99182.31;10354837;28;20567;-64
2021/11/15 20:24:15;;;;;;;137.32;58.75;;;;;;;4.50;100.00;99174.31;10324135;28;20053;-64
2021/11/15 20:29:18;;;;;;;140.70;58.40;;;;;;;4.50;100.00;99172.50;10346228;28;20038;-62
2021/11/15 20:34:24;;;;;;;123.70;55.70;;;;;;;4.54;100.00;99174.00;10322509;28;20439;-63
2021/11/15 20:39:27;;;;;;;116.20;54.72;;;;;;;4.53;100.00;99172.28;10333016;28;20046;-64
2021/11/15 20:44:31;;;;;;;127.63;55.80;;;;;;;4.54;100.00;99178.50;10328267;28;20042;-64
2021/11/15 20:49:36;;;;;;;126.28;56.00;;;;;;;4.57;100.00;99181.81;10356932;28;20137;-64
2021/11/15 20:54:40;;;;;;;121.18;55.95;;;;;;;4.61;100.00;99175.31;10323137;28;20137;-66
2021/11/15 20:59:44;;;;;;;117.00;54.03;;;;;;;4.63;100.00;99173.38;10334996;28;20141;-64
2021/11/15 21:04:48;;;;;;;123.30;54.38;;;;;;;4.64;100.00;99179.56;10332293;28;20050;-64
2021/11/15 21:09:51;;;;;;;137.18;60.17;;;;;;;4.64;100.00;99179.56;10338693;28;20048;-64
2021/11/15 21:14:54;;;;;;;134.60;58.53;;;;;;;4.65;100.00;99183.06;10349760;28;20102;-63
2021/11/15 21:19:59;;;;;;;135.95;60.15;;;;;;;4.67;100.00;99178.50;10352068;28;20046;-63
2021/11/15 21:25:05;;;;;;;138.18;58.38;;;;;;;4.68;100.00;99177.53;10354502;28;20054;-63
2021/11/15 21:30:09;;;;;;;124.43;55.00;;;;;;;4.67;100.00;99173.16;10349641;28;20125;-62
2021/11/15 21:35:15;;;;;;;125.82;55.15;;;;;;;4.65;100.00;99170.59;10347215;28;20074;-60
2021/11/15 21:40:21;;;;;;;123.60;55.80;;;;;;;4.59;100.00;99161.19;10384415;28;20051;-64
2021/11/15 21:45:25;;;;;;;123.53;53.92;;;;;;;4.56;100.00;99166.75;10384026;28;20038;-63
2021/11/15 21:50:32;;;;;;;119.68;54.47;;;;;;;4.56;100.00;99164.06;10405275;28;20069;-63
2021/11/15 21:55:37;;;;;;;129.10;56.35;;;;;;;4.56;100.00;99161.41;10386712;28;20053;-63
2021/11/15 22:00:44;;;;;;;138.95;62.15;;;;;;;4.54;100.00;99163.31;10398044;28;20137;-61
2021/11/15 22:05:49;;;;;;;134.40;56.90;;;;;;;4.49;100.00;99149.44;10356891;28;20068;-61
2021/11/15 22:10:54;;;;;;;115.20;53.22;;;;;;;4.48;100.00;99139.72;10368960;28;20045;-64
2021/11/15 22:15:59;;;;;;;123.00;55.25;;;;;;;4.48;100.00;99137.91;10376272;28;20045;-63
2021/11/15 22:21:06;;;;;;;119.45;57.05;;;;;;;4.47;100.00;99151.38;10374126;28;20046;-61
2021/11/15 22:26:09;;;;;;;127.93;57.08;;;;;;;4.43;100.00;99140.06;10370588;28;20042;-61
2021/11/15 22:31:13;;;;;;;135.07;57.85;;;;;;;4.42;100.00;99126.78;10368572;28;20050;-61
2021/11/15 22:36:18;;;;;;;129.85;58.08;;;;;;;4.41;100.00;99128.63;10377168;28;20042;-63
2021/11/15 22:41:22;;;;;;;129.20;56.50;;;;;;;4.39;100.00;99132.38;10376631;28;20049;-61
2021/11/15 22:46:26;;;;;;;133.82;57.47;;;;;;;4.36;100.00;99133.41;10382416;28;20041;-60
2021/11/15 22:51:30;;;;;;;130.85;58.33;;;;;;;4.37;100.00;99151.13;10386559;28;20895;-63
2021/11/15 22:56:34;;;;;;;133.43;57.60;;;;;;;4.35;100.00;99130.84;10380782;28;20052;-63
2021/11/15 23:01:38;;;;;;;121.70;54.55;;;;;;;4.32;100.00;99116.75;10387062;28;20049;-63
2021/11/15 23:06:42;;;;;;;122.10;55.25;;;;;;;4.35;100.00;99125.50;10389579;28;20505;-63
2021/11/15 23:11:45;;;;;;;126.38;55.08;;;;;;;4.34;100.00;99114.00;10365927;28;20451;-64
2021/11/15 23:16:52;;;;;;;119.55;53.55;;;;;;;4.31;100.00;99109.72;10386720;28;20071;-63
2021/11/15 23:21:59;;;;;;;132.48;57.90;;;;;;;4.31;100.00;99119.53;10362106;28;20080;-62